createdAt,value
2022-09-05T00:00:17.569Z,43.73
2022-09-05T00:01:17.493Z,43.53
2022-09-05T00:02:17.413Z,44.11
2022-09-05T00:03:17.452Z,42.40
2022-09-05T00:04:25.297Z,43.91
2022-09-05T00:05:17.184Z,43.15
2022-09-05T00:06:17.109Z,42.47
2022-09-05T00:07:31.205Z,42.96
2022-09-05T00:08:16.953Z,43.63
2022-09-05T00:09:16.876Z,43.44
2022-09-05T00:10:16.797Z,43.63
2022-09-05T00:11:41.105Z,42.96
2022-09-05T00:12:16.649Z,43.15
2022-09-05T00:13:16.569Z,42.86
2022-09-05T00:14:16.523Z,42.19
2022-09-05T00:15:19.012Z,42.38
2022-09-05T00:16:16.403Z,42.77
2022-09-05T00:17:16.262Z,42.67
2022-09-05T00:23:57.154Z,42.77
2022-09-05T00:24:17.009Z,42.77
2022-09-05T00:24:18.889Z,42.47
2022-09-05T00:24:28.427Z,44.59
2022-09-05T00:24:29.217Z,43.73
2022-09-05T00:24:29.711Z,43.82
2022-09-05T00:24:32.506Z,43.15
2022-09-05T00:25:32.303Z,44.20
2022-09-05T00:26:15.573Z,44.87
2022-09-05T00:27:15.499Z,44.20
2022-09-05T00:28:25.899Z,44.59
2022-09-05T00:29:16.268Z,44.20
2022-09-05T00:31:51.011Z,44.78
2022-09-05T00:31:55.385Z,44.59
2022-09-05T00:32:15.137Z,43.44
2022-09-05T00:33:27.100Z,43.44
2022-09-05T00:34:14.957Z,44.01
2022-09-05T00:35:14.880Z,44.20
2022-09-05T00:36:14.806Z,43.53
2022-09-05T00:37:14.728Z,44.40
2022-09-05T00:38:14.654Z,44.11
2022-09-05T00:39:14.569Z,43.53
2022-09-05T00:40:18.664Z,43.73
2022-09-05T00:41:14.423Z,43.53
2022-09-05T00:42:14.340Z,43.82
2022-09-05T00:43:14.263Z,44.01
2022-09-05T00:44:14.188Z,43.63
2022-09-05T00:45:14.560Z,43.24
2022-09-05T00:46:14.047Z,42.57
2022-09-05T00:47:13.959Z,42.47
2022-09-05T00:48:13.881Z,42.86
2022-09-05T00:49:13.800Z,43.41
2022-09-05T00:50:13.726Z,43.24
2022-09-05T00:51:13.657Z,43.73
2022-09-05T00:52:13.570Z,43.03
2022-09-05T00:53:13.495Z,42.57
2022-09-05T00:54:13.420Z,42.38
2022-09-05T00:55:13.342Z,42.55
2022-09-05T00:56:13.264Z,42.00
2022-09-05T00:57:13.188Z,42.46
2022-09-05T00:58:13.114Z,42.84
2022-09-05T00:59:13.032Z,42.84
2022-09-05T01:00:17.316Z,43.13
2022-09-05T01:01:21.345Z,43.13
2022-09-05T01:02:12.876Z,42.84
2022-09-05T01:03:12.827Z,42.84
2022-09-05T01:04:12.650Z,43.32
2022-09-05T01:05:12.573Z,42.55
2022-09-05T01:06:12.494Z,42.46
2022-09-05T01:07:12.413Z,42.74
2022-09-05T01:08:12.341Z,43.13
2022-09-05T01:09:12.258Z,42.07
2022-09-05T01:10:12.183Z,42.74
2022-09-05T01:11:12.108Z,42.46
2022-09-05T01:12:12.032Z,41.60
2022-09-05T01:13:11.952Z,41.78
2022-09-05T01:14:12.961Z,41.60
2022-09-05T01:15:11.796Z,40.92
2022-09-05T01:16:11.812Z,40.92
2022-09-05T01:17:11.643Z,40.73
2022-09-05T01:18:11.571Z,40.73
2022-09-05T01:19:16.031Z,40.83
2022-09-05T01:20:19.159Z,40.73
2022-09-05T01:21:11.338Z,40.73
2022-09-05T01:22:11.260Z,40.92
2022-09-05T01:23:11.186Z,40.73
2022-09-05T01:24:11.114Z,40.73
2022-09-05T01:25:11.034Z,40.73
2022-09-05T01:26:10.954Z,40.44
2022-09-05T01:27:12.165Z,40.64
2022-09-05T01:29:14.019Z,40.25
2022-09-05T01:29:18.037Z,40.35
2022-09-05T01:30:10.646Z,40.25
2022-09-05T01:31:10.626Z,40.06
2022-09-05T01:32:10.489Z,39.29
2022-09-05T01:33:10.413Z,41.02
2022-09-05T01:34:10.333Z,41.60
2022-09-05T01:35:10.251Z,40.25
2022-09-05T01:36:10.178Z,41.69
2022-09-05T01:37:24.777Z,40.83
2022-09-05T01:38:10.022Z,40.44
2022-09-05T01:40:10.616Z,40.25
2022-09-05T01:40:11.293Z,40.04
2022-09-05T01:41:19.144Z,39.39
2022-09-05T01:42:09.713Z,39.68
2022-09-05T01:43:09.639Z,39.75
2022-09-05T01:44:09.564Z,39.87
2022-09-05T01:45:09.484Z,40.06
2022-09-05T01:46:11.552Z,39.01
2022-09-05T01:47:09.650Z,39.37
2022-09-05T01:48:09.254Z,39.20
2022-09-05T01:49:09.180Z,38.34
2022-09-05T01:50:09.097Z,39.28
2022-09-05T01:51:09.915Z,39.28
2022-09-05T01:52:08.944Z,39.39
2022-09-05T01:53:08.871Z,39.56
2022-09-05T01:54:14.795Z,38.98
2022-09-05T01:55:08.713Z,39.18
2022-09-05T01:56:11.208Z,38.98
2022-09-05T01:57:08.562Z,39.56
2022-09-05T01:58:08.478Z,40.04
2022-09-05T01:59:08.419Z,40.42
2022-09-05T02:00:08.329Z,38.79
2022-09-05T02:01:25.260Z,39.37
2022-09-05T02:02:08.337Z,39.37
2022-09-05T02:03:08.131Z,40.14
2022-09-05T02:04:08.017Z,39.37
2022-09-05T02:05:07.942Z,39.37
2022-09-05T02:06:07.858Z,39.37
2022-09-05T02:07:15.234Z,39.18
2022-09-05T02:08:07.706Z,38.51
2022-09-05T02:09:07.632Z,38.12
2022-09-05T02:10:07.846Z,38.22
2022-09-05T02:11:07.477Z,37.65
2022-09-05T02:12:07.397Z,38.51
2022-09-05T02:13:07.321Z,38.51
2022-09-05T02:14:07.242Z,38.51
2022-09-05T02:15:07.167Z,38.32
2022-09-05T02:16:07.146Z,38.32
2022-09-05T02:17:07.011Z,37.93
2022-09-05T02:18:06.935Z,37.84
2022-09-05T02:19:06.856Z,37.65
2022-09-05T02:20:06.776Z,38.41
2022-09-05T02:21:06.703Z,37.07
2022-09-05T02:22:06.623Z,36.79
2022-09-05T02:23:24.820Z,36.02
2022-09-05T02:24:06.467Z,35.25
2022-09-05T02:25:33.872Z,34.87
2022-09-05T02:26:06.313Z,34.58
2022-09-05T02:27:06.232Z,34.67
2022-09-05T02:28:06.333Z,34.48
2022-09-05T02:29:06.082Z,34.48
2022-09-05T02:30:06.003Z,35.35
2022-09-05T02:31:19.793Z,35.73
2022-09-05T02:32:05.846Z,35.63
2022-09-05T02:33:05.779Z,35.53
2022-09-05T02:34:05.693Z,35.53
2022-09-05T02:35:05.612Z,35.63
2022-09-05T02:36:05.535Z,35.83
2022-09-05T02:37:05.457Z,36.02
2022-09-05T02:39:51.948Z,35.83
2022-09-05T02:42:40.441Z,35.92
2022-09-05T02:45:07.123Z,36.02
2022-09-05T02:45:11.604Z,36.59
2022-09-05T02:45:14.074Z,36.69
2022-09-05T02:45:17.000Z,36.11
2022-09-05T02:45:19.503Z,37.07
2022-09-05T02:45:25.674Z,36.59
2022-09-05T02:46:04.839Z,36.49
2022-09-05T02:47:04.746Z,36.30
2022-09-05T02:48:15.594Z,35.63
2022-09-05T02:49:07.750Z,36.69
2022-09-05T02:52:38.142Z,36.40
2022-09-05T02:57:23.317Z,37.16
2022-09-05T02:57:27.015Z,35.92
2022-09-05T02:57:27.164Z,36.02
2022-09-05T02:57:36.525Z,35.92
2022-09-05T02:57:36.861Z,36.40
2022-09-05T02:57:38.793Z,36.02
2022-09-05T02:57:40.977Z,36.59
2022-09-05T02:58:06.056Z,36.69
2022-09-05T02:59:09.923Z,36.40
2022-09-05T03:00:03.680Z,36.40
2022-09-05T03:01:03.654Z,36.59
2022-09-05T03:02:09.328Z,36.11
2022-09-05T03:03:03.467Z,36.02
2022-09-05T03:04:03.372Z,36.21
2022-09-05T03:05:04.787Z,36.02
2022-09-05T03:06:03.219Z,35.73
2022-09-05T03:07:03.142Z,35.73
2022-09-05T03:08:03.061Z,35.73
2022-09-05T03:09:09.710Z,34.87
2022-09-05T03:10:02.908Z,35.06
2022-09-05T03:11:02.828Z,35.14
2022-09-05T03:12:03.033Z,35.73
2022-09-05T03:13:02.668Z,35.35
2022-09-05T03:14:02.593Z,34.39
2022-09-05T03:15:02.518Z,34.87
2022-09-05T03:16:04.734Z,36.02
2022-09-05T03:17:02.437Z,35.73
2022-09-05T03:18:20.892Z,35.35
2022-09-05T03:19:02.211Z,35.16
2022-09-05T03:20:02.130Z,34.47
2022-09-05T03:21:09.244Z,34.96
2022-09-05T03:22:01.977Z,35.83
2022-09-05T03:23:01.900Z,35.24
2022-09-05T03:24:01.825Z,35.71
2022-09-05T03:25:01.742Z,35.04
2022-09-05T03:26:01.662Z,34.85
2022-09-05T03:27:01.589Z,34.94
2022-09-05T03:28:01.509Z,34.75
2022-09-05T03:29:01.436Z,34.28
2022-09-05T03:30:01.351Z,34.28
2022-09-05T03:31:01.295Z,34.66
2022-09-05T03:32:01.201Z,34.18
2022-09-05T03:33:01.117Z,34.28
2022-09-05T03:34:01.043Z,34.56
2022-09-05T03:35:03.119Z,34.56
2022-09-05T03:36:00.892Z,34.75
2022-09-05T03:37:00.808Z,34.75
2022-09-05T03:38:00.732Z,34.75
2022-09-05T03:39:00.657Z,34.85
2022-09-05T03:40:00.776Z,34.56
2022-09-05T03:41:00.495Z,35.04
2022-09-05T03:42:00.420Z,35.24
2022-09-05T03:43:00.342Z,35.81
2022-09-05T03:44:00.266Z,35.61
2022-09-05T03:45:00.193Z,36.10
2022-09-05T03:46:00.139Z,36.00
2022-09-05T03:47:00.033Z,35.52
2022-09-05T03:48:03.654Z,35.90
2022-09-05T03:49:04.149Z,35.90
2022-09-05T03:52:38.121Z,35.81
2022-09-05T03:57:07.291Z,35.61
2022-09-05T03:57:12.924Z,35.71
2022-09-05T03:57:13.844Z,36.38
2022-09-05T03:57:15.841Z,35.90
2022-09-05T03:57:16.383Z,36.00
2022-09-05T03:57:18.607Z,36.10
2022-09-05T03:57:24.630Z,35.81
2022-09-05T03:58:02.182Z,35.71
2022-09-05T03:58:59.556Z,36.10
2022-09-05T03:59:59.023Z,36.38
2022-09-05T04:00:59.990Z,35.71
2022-09-05T04:04:24.774Z,36.29
2022-09-05T04:08:05.952Z,36.00
2022-09-05T04:08:10.062Z,36.47
2022-09-05T04:08:16.456Z,36.77
2022-09-05T04:08:19.032Z,36.38
2022-09-05T04:08:23.790Z,36.77
2022-09-05T04:08:30.912Z,36.57
2022-09-05T04:08:58.409Z,37.05
2022-09-05T04:09:58.365Z,36.86
2022-09-05T04:10:58.240Z,36.57
2022-09-05T04:11:58.091Z,36.77
2022-09-05T04:12:58.016Z,36.38
2022-09-05T04:13:57.934Z,35.90
2022-09-05T04:14:57.856Z,36.38
2022-09-05T04:15:57.779Z,36.29
2022-09-05T04:16:57.750Z,36.67
2022-09-05T04:18:03.943Z,35.71
2022-09-05T04:18:57.547Z,35.90
2022-09-05T04:19:57.473Z,36.47
2022-09-05T04:20:57.394Z,35.90
2022-09-05T04:21:57.317Z,36.10
2022-09-05T04:22:57.234Z,36.00
2022-09-05T04:23:57.156Z,36.57
2022-09-05T04:24:57.085Z,35.90
2022-09-05T04:26:11.138Z,36.47
2022-09-05T04:26:56.929Z,36.10
2022-09-05T04:27:56.847Z,36.10
2022-09-05T04:28:56.770Z,36.00
2022-09-05T04:29:56.702Z,36.00
2022-09-05T04:30:56.619Z,36.19
2022-09-05T04:32:17.445Z,35.90
2022-09-05T04:32:56.491Z,35.90
2022-09-05T04:33:56.379Z,35.71
2022-09-05T04:34:56.312Z,35.71
2022-09-05T04:35:56.228Z,35.52
2022-09-05T04:36:56.151Z,35.14
2022-09-05T04:37:56.071Z,35.71
2022-09-05T04:38:55.994Z,35.24
2022-09-05T04:39:55.976Z,35.52
2022-09-05T04:40:55.839Z,35.81
2022-09-05T04:41:55.755Z,35.61
2022-09-05T04:42:55.682Z,35.61
2022-09-05T04:43:55.604Z,35.71
2022-09-05T04:44:55.823Z,35.81
2022-09-05T04:45:55.476Z,35.81
2022-09-05T04:46:55.370Z,35.81
2022-09-05T04:47:55.293Z,35.71
2022-09-05T04:48:55.217Z,35.71
2022-09-05T04:49:55.134Z,35.14
2022-09-05T04:50:55.063Z,35.42
2022-09-05T04:51:59.984Z,35.61
2022-09-05T04:52:54.904Z,35.42
2022-09-05T04:53:54.823Z,35.24
2022-09-05T04:54:54.749Z,35.33
2022-09-05T04:55:54.666Z,34.85
2022-09-05T04:56:54.599Z,34.85
2022-09-05T04:57:54.514Z,34.94
2022-09-05T05:01:32.493Z,35.24
2022-09-05T05:05:59.243Z,35.14
2022-09-05T05:06:00.912Z,35.14
2022-09-05T05:06:08.910Z,35.14
2022-09-05T05:06:10.663Z,35.81
2022-09-05T05:06:11.234Z,35.81
2022-09-05T05:06:14.078Z,34.94
2022-09-05T05:06:17.757Z,34.85
2022-09-05T05:06:53.927Z,34.85
2022-09-05T05:07:53.875Z,34.75
2022-09-05T05:08:53.703Z,35.04
2022-09-05T05:10:08.450Z,35.33
2022-09-05T05:16:13.506Z,34.85
2022-09-05T05:17:55.651Z,35.14
2022-09-05T05:17:56.266Z,35.14
2022-09-05T05:18:01.114Z,35.90
2022-09-05T05:18:10.724Z,35.04
2022-09-05T05:18:13.923Z,34.85
2022-09-05T05:18:14.074Z,34.85
2022-09-05T05:18:15.785Z,34.85
2022-09-05T05:19:03.607Z,34.75
2022-09-05T05:19:56.426Z,34.94
2022-09-05T05:20:52.860Z,34.47
2022-09-05T05:21:52.651Z,34.47
2022-09-05T05:22:52.567Z,34.85
2022-09-05T05:23:52.492Z,34.47
2022-09-05T05:24:52.414Z,34.28
2022-09-05T05:25:52.332Z,34.66
2022-09-05T05:26:56.683Z,34.75
2022-09-05T05:27:52.174Z,33.80
2022-09-05T05:28:52.103Z,33.99
2022-09-05T05:29:52.020Z,34.47
2022-09-05T05:30:51.944Z,33.70
2022-09-05T05:31:51.940Z,33.99
2022-09-05T05:32:51.796Z,33.61
2022-09-05T05:33:51.706Z,33.70
2022-09-05T05:34:51.630Z,34.85
2022-09-05T05:35:51.569Z,34.75
2022-09-05T05:36:51.482Z,34.75
2022-09-05T05:37:51.400Z,35.81
2022-09-05T05:38:51.324Z,35.42
2022-09-05T05:39:51.278Z,35.71
2022-09-05T05:40:51.529Z,35.71
2022-09-05T05:41:51.093Z,35.53
2022-09-05T05:42:51.011Z,35.73
2022-09-05T05:43:50.932Z,34.58
2022-09-05T05:44:50.857Z,34.56
2022-09-05T05:45:50.795Z,34.87
2022-09-05T05:46:50.700Z,35.25
2022-09-05T05:47:50.620Z,34.96
2022-09-05T05:48:57.017Z,35.16
2022-09-05T05:49:50.467Z,35.92
2022-09-05T05:50:50.389Z,35.73
2022-09-05T05:52:02.083Z,35.92
2022-09-05T05:52:50.237Z,36.49
2022-09-05T05:53:52.378Z,37.07
2022-09-05T05:54:50.481Z,36.79
2022-09-05T05:55:52.487Z,36.40
2022-09-05T05:56:49.922Z,36.40
2022-09-05T05:57:49.845Z,36.11
2022-09-05T05:58:49.767Z,35.53
2022-09-05T05:59:56.419Z,35.83
2022-09-05T06:00:51.971Z,35.73
2022-09-05T06:01:49.699Z,35.73
2022-09-05T06:02:58.688Z,35.44
2022-09-05T06:03:49.489Z,35.92
2022-09-05T06:04:49.302Z,36.11
2022-09-05T06:05:49.227Z,36.59
2022-09-05T06:06:49.152Z,36.49
2022-09-05T06:09:09.327Z,36.49
2022-09-05T06:14:49.449Z,36.49
2022-09-05T06:14:49.504Z,36.40
2022-09-05T06:14:52.691Z,36.88
2022-09-05T06:14:56.250Z,35.83
2022-09-05T06:14:59.312Z,36.40
2022-09-05T06:15:06.636Z,36.02
2022-09-05T06:15:08.534Z,36.04
2022-09-05T06:15:48.452Z,36.02
2022-09-05T06:16:48.458Z,36.22
2022-09-05T06:17:48.298Z,36.42
2022-09-05T06:18:48.215Z,36.80
2022-09-05T06:21:44.133Z,36.42
2022-09-05T06:22:07.167Z,35.75
2022-09-05T06:22:08.553Z,36.22
2022-09-05T06:22:47.905Z,36.61
2022-09-05T06:23:47.831Z,36.51
2022-09-05T06:24:47.753Z,36.04
2022-09-05T06:25:47.679Z,36.13
2022-09-05T06:26:47.593Z,35.94
2022-09-05T06:28:17.581Z,36.51
2022-09-05T06:28:47.438Z,35.94
2022-09-05T06:29:47.411Z,36.13
2022-09-05T06:30:47.286Z,36.04
2022-09-05T06:31:47.244Z,35.94
2022-09-05T06:32:56.841Z,35.00
2022-09-05T06:33:47.062Z,35.00
2022-09-05T06:34:46.973Z,35.77
2022-09-05T06:35:46.901Z,35.77
2022-09-05T06:36:46.822Z,36.24
2022-09-05T06:37:46.749Z,36.72
2022-09-05T06:38:46.667Z,36.91
2022-09-05T06:39:47.977Z,36.44
2022-09-05T06:40:46.516Z,37.30
2022-09-05T06:41:46.433Z,37.68
2022-09-05T06:42:46.358Z,37.20
2022-09-05T06:43:46.280Z,38.45
2022-09-05T06:44:46.205Z,37.97
2022-09-05T06:45:46.596Z,38.56
2022-09-05T06:47:22.096Z,39.12
2022-09-05T06:47:46.040Z,40.39
2022-09-05T06:49:30.143Z,39.33
2022-09-05T06:49:46.263Z,39.23
2022-09-05T06:51:02.031Z,38.76
2022-09-05T06:51:46.421Z,39.14
2022-09-05T06:52:45.590Z,39.33
2022-09-05T06:53:45.506Z,39.23
2022-09-05T06:54:47.179Z,40.20
2022-09-05T06:55:45.357Z,40.48
2022-09-05T06:56:45.276Z,41.06
2022-09-05T06:57:45.200Z,41.16
2022-09-05T06:58:45.122Z,41.16
2022-09-05T06:59:45.050Z,41.83
2022-09-05T07:00:45.041Z,41.54
2022-09-05T07:02:00.275Z,40.99
2022-09-05T07:02:58.978Z,41.75
2022-09-05T07:03:44.754Z,41.73
2022-09-05T07:05:23.260Z,41.85
2022-09-05T07:05:45.650Z,41.17
2022-09-05T07:07:01.589Z,42.23
2022-09-05T07:07:46.061Z,42.43
2022-09-05T07:08:44.366Z,41.56
2022-09-05T07:09:44.280Z,41.75
2022-09-05T07:10:44.199Z,42.04
2022-09-05T07:11:44.125Z,42.04
2022-09-05T07:12:44.047Z,41.75
2022-09-05T07:13:44.563Z,42.43
2022-09-05T07:14:43.891Z,42.43
2022-09-05T07:15:43.813Z,41.29
2022-09-05T07:16:43.790Z,41.20
2022-09-05T07:18:08.576Z,42.16
2022-09-05T07:18:43.585Z,43.98
2022-09-05T07:19:43.507Z,44.27
2022-09-05T07:21:06.727Z,45.04
2022-09-05T07:21:44.366Z,46.48
2022-09-05T07:22:48.427Z,46.28
2022-09-05T07:24:08.978Z,46.77
2022-09-05T07:24:54.656Z,46.00
2022-09-05T07:25:43.049Z,45.71
2022-09-05T07:26:51.795Z,44.56
2022-09-05T07:28:26.235Z,44.29
2022-09-05T07:28:42.822Z,44.58
2022-09-05T07:29:49.699Z,44.77
2022-09-05T07:30:42.665Z,44.00
2022-09-05T07:31:42.647Z,42.76
2022-09-05T07:32:42.520Z,43.14
2022-09-05T07:33:42.453Z,44.00
2022-09-05T07:34:42.362Z,44.77
2022-09-05T07:35:42.764Z,43.91
2022-09-05T07:36:42.211Z,44.87
2022-09-05T07:37:42.136Z,44.70
2022-09-05T07:38:52.509Z,45.08
2022-09-05T07:39:42.013Z,46.91
2022-09-05T07:40:41.926Z,47.39
2022-09-05T07:41:41.830Z,46.23
2022-09-05T07:42:41.749Z,46.53
2022-09-05T07:43:41.674Z,47.97
2022-09-05T07:44:41.596Z,47.80
2022-09-05T07:45:46.470Z,48.76
2022-09-05T07:46:41.441Z,48.47
2022-09-05T07:47:41.366Z,50.40
2022-09-05T07:48:41.293Z,49.91
2022-09-05T07:49:50.557Z,51.55
2022-09-05T07:55:12.383Z,52.51
2022-09-05T07:56:49.059Z,51.74
2022-09-05T07:56:49.428Z,51.57
2022-09-05T07:56:50.567Z,52.22
2022-09-05T07:56:51.279Z,53.98
2022-09-05T07:57:05.169Z,52.73
2022-09-05T07:57:10.216Z,53.50
2022-09-05T07:57:51.173Z,54.65
2022-09-05T07:58:40.529Z,55.52
2022-09-05T07:59:40.458Z,57.15
2022-09-05T08:00:40.415Z,56.48
2022-09-05T08:01:40.305Z,57.25
2022-09-05T08:02:45.374Z,58.15
2022-09-05T08:03:40.155Z,59.30
2022-09-05T08:04:40.148Z,58.82
2022-09-05T08:06:07.878Z,61.61
2022-09-05T08:07:34.386Z,62.29
2022-09-05T08:07:49.137Z,61.52
2022-09-05T08:08:39.774Z,61.42
2022-09-05T08:10:05.435Z,62.67
2022-09-05T08:11:23.245Z,63.64
2022-09-05T08:11:39.546Z,62.57
2022-09-05T08:13:22.981Z,65.75
2022-09-05T08:13:39.686Z,64.50
2022-09-05T08:14:45.433Z,63.64
2022-09-05T08:16:10.763Z,67.87
2022-09-05T08:16:39.205Z,68.84
2022-09-05T08:17:39.094Z,68.96
2022-09-05T08:18:42.530Z,68.19
2022-09-05T08:19:38.943Z,68.10
2022-09-05T08:20:38.869Z,67.52
2022-09-05T08:21:40.107Z,67.71
2022-09-05T08:22:38.716Z,67.71
2022-09-05T08:23:38.640Z,67.33
2022-09-05T08:24:38.566Z,66.36
2022-09-05T08:25:57.625Z,67.90
2022-09-05T08:26:38.417Z,67.46
2022-09-05T08:27:38.339Z,69.67
2022-09-05T08:28:39.246Z,68.61
2022-09-05T08:29:38.190Z,68.90
2022-09-05T08:30:38.112Z,68.71
2022-09-05T08:31:40.933Z,69.19
2022-09-05T08:32:37.962Z,71.22
2022-09-05T08:33:37.886Z,71.12
2022-09-05T08:34:44.996Z,69.77
2022-09-05T08:35:37.736Z,71.60
2022-09-05T08:36:37.662Z,70.83
2022-09-05T08:37:37.585Z,70.06
2022-09-05T08:38:40.837Z,70.92
2022-09-05T08:39:37.469Z,71.50
2022-09-05T08:40:37.364Z,72.47
2022-09-05T08:41:49.348Z,75.74
2022-09-05T08:42:37.618Z,76.07
2022-09-05T08:46:40.995Z,74.43
2022-09-05T08:46:42.972Z,72.50
2022-09-05T08:46:47.735Z,75.45
2022-09-05T08:46:49.185Z,73.47
2022-09-05T08:47:45.790Z,74.52
2022-09-05T08:48:36.761Z,75.30
2022-09-05T08:49:38.776Z,74.72
2022-09-05T08:50:36.608Z,78.29
2022-09-05T08:51:36.534Z,78.19
2022-09-05T08:52:36.464Z,77.42
2022-09-05T08:53:46.096Z,78.86
2022-09-05T08:54:36.308Z,79.64
2022-09-05T08:55:36.238Z,76.45
2022-09-05T08:56:36.164Z,77.42
2022-09-05T08:57:36.089Z,78.52
2022-09-05T08:58:36.009Z,78.81
2022-09-05T08:59:35.937Z,78.13
2022-09-05T09:00:35.951Z,80.45
2022-09-05T09:02:11.590Z,81.12
2022-09-05T09:02:47.685Z,80.06
2022-09-05T09:03:35.663Z,78.33
2022-09-05T09:05:00.717Z,78.03
2022-09-05T09:06:11.827Z,78.81
2022-09-05T09:06:35.416Z,80.06
2022-09-05T09:07:50.535Z,82.28
2022-09-05T09:08:35.276Z,79.68
2022-09-05T09:09:35.190Z,81.93
2022-09-05T09:10:35.113Z,81.55
2022-09-05T09:11:36.697Z,81.93
2022-09-05T09:12:34.967Z,82.51
2022-09-05T09:13:35.071Z,83.09
2022-09-05T09:14:34.819Z,84.54
2022-09-05T09:15:34.743Z,82.61
2022-09-05T09:16:34.779Z,82.71
2022-09-05T09:17:34.594Z,82.42
2022-09-05T09:18:36.100Z,84.25
2022-09-05T09:19:34.446Z,86.47
2022-09-05T09:20:34.375Z,86.57
2022-09-05T09:21:34.299Z,84.44
2022-09-05T09:22:34.224Z,82.61
2022-09-05T09:23:34.258Z,85.50
2022-09-05T09:24:34.079Z,86.61
2022-09-05T09:25:34.300Z,85.74
2022-09-05T09:26:33.929Z,85.16
2022-09-05T09:28:40.788Z,84.06
2022-09-05T09:28:47.803Z,84.88
2022-09-05T09:29:33.703Z,88.54
2022-09-05T09:30:33.626Z,88.15
2022-09-05T09:31:33.619Z,88.93
2022-09-05T09:32:33.540Z,90.09
2022-09-05T09:33:33.407Z,92.79
2022-09-05T09:34:36.725Z,91.83
2022-09-05T09:35:33.261Z,91.25
2022-09-05T09:36:33.185Z,93.27
2022-09-05T09:37:51.734Z,92.11
2022-09-05T09:38:33.041Z,93.37
2022-09-05T09:39:38.204Z,92.02
2022-09-05T09:40:32.891Z,89.61
2022-09-05T09:41:32.814Z,90.52
2022-09-05T09:42:34.132Z,91.58
2022-09-05T09:43:32.666Z,90.47
2022-09-05T09:44:32.594Z,93.23
2022-09-05T09:45:32.518Z,90.42
2022-09-05T09:46:32.476Z,92.74
2022-09-05T09:47:32.372Z,93.61
2022-09-05T09:48:32.296Z,95.25
2022-09-05T09:49:32.219Z,94.57
2022-09-05T09:50:32.151Z,94.38
2022-09-05T09:51:32.075Z,94.09
2022-09-05T09:52:32.004Z,93.99
2022-09-05T09:53:36.896Z,97.19
2022-09-05T09:54:31.858Z,93.71
2022-09-05T09:55:31.777Z,92.07
2022-09-05T09:56:31.708Z,93.51
2022-09-05T09:57:31.631Z,93.41
2022-09-05T09:58:32.590Z,95.25
2022-09-05T09:59:31.485Z,95.25
2022-09-05T10:00:31.412Z,95.15
2022-09-05T10:01:35.989Z,99.89
2022-09-05T10:03:47.085Z,97.19
2022-09-05T10:07:31.785Z,98.44
2022-09-05T10:10:37.856Z,98.10
2022-09-05T10:10:47.755Z,99.26
2022-09-05T10:10:48.841Z,99.99
2022-09-05T10:10:52.404Z,99.99
2022-09-05T10:10:52.714Z,99.99
2022-09-05T10:11:09.108Z,96.99
2022-09-05T10:11:23.797Z,99.26
2022-09-05T10:11:52.995Z,99.99
2022-09-05T10:12:30.536Z,99.99
2022-09-05T10:13:30.450Z,99.99
2022-09-05T10:14:47.868Z,98.20
2022-09-05T10:15:32.482Z,99.99
2022-09-05T10:16:30.301Z,97.72
2022-09-05T10:17:30.158Z,99.99
2022-09-05T10:18:31.626Z,99.99
2022-09-05T10:20:29.940Z,99.99
2022-09-05T10:21:29.863Z,99.99
2022-09-05T10:22:37.785Z,99.99
2022-09-05T10:23:29.716Z,99.99
2022-09-05T10:24:29.649Z,99.99
2022-09-05T10:25:29.571Z,99.99
2022-09-05T10:26:29.498Z,99.99
2022-09-05T10:27:29.421Z,99.99
2022-09-05T10:28:29.349Z,99.99
2022-09-05T10:29:37.541Z,99.99
2022-09-05T10:31:22.096Z,99.99
2022-09-05T10:33:52.643Z,99.99
2022-09-05T10:35:04.548Z,99.99
2022-09-05T10:35:17.913Z,99.99
2022-09-05T10:35:19.948Z,99.99
2022-09-05T10:35:29.517Z,99.99
2022-09-05T10:36:28.863Z,99.99
2022-09-05T10:37:28.687Z,99.99
2022-09-05T10:38:28.615Z,99.99
2022-09-05T10:39:28.580Z,99.99
2022-09-05T10:40:28.470Z,99.99
2022-09-05T10:41:28.393Z,99.99
2022-09-05T10:42:28.325Z,99.99
2022-09-05T10:43:28.252Z,99.99
2022-09-05T10:44:28.177Z,99.99
2022-09-05T10:45:38.219Z,99.99
2022-09-05T10:46:49.622Z,99.99
2022-09-05T10:47:28.041Z,99.99
2022-09-05T10:48:27.886Z,99.99
2022-09-05T10:49:30.308Z,99.99
2022-09-05T10:50:27.740Z,99.99
2022-09-05T10:51:28.367Z,99.99
2022-09-05T10:52:27.594Z,99.99
2022-09-05T10:53:28.445Z,99.99
2022-09-05T10:54:27.451Z,99.99
2022-09-05T10:55:27.373Z,99.99
2022-09-05T10:56:28.707Z,99.99
2022-09-05T10:57:27.229Z,99.99
2022-09-05T10:58:46.281Z,99.99
2022-09-05T11:02:16.356Z,99.99
2022-09-05T11:02:20.687Z,99.99
2022-09-05T11:02:21.751Z,99.99
2022-09-05T11:02:34.071Z,99.99
2022-09-05T11:03:26.976Z,99.99
2022-09-05T11:04:26.720Z,99.99
2022-09-05T11:05:26.731Z,99.99
2022-09-05T11:06:26.571Z,99.99
2022-09-05T11:07:29.769Z,96.89
2022-09-05T11:08:26.431Z,97.42
2022-09-05T11:09:26.355Z,99.07
2022-09-05T11:10:26.281Z,96.16
2022-09-05T11:11:34.875Z,97.03
2022-09-05T11:12:26.139Z,98.30
2022-09-05T11:13:26.179Z,99.99
2022-09-05T11:14:26.838Z,99.99
2022-09-05T11:15:25.915Z,99.99
2022-09-05T11:16:25.876Z,99.99
2022-09-05T11:17:25.774Z,99.99
2022-09-05T11:18:27.119Z,99.99
2022-09-05T11:19:25.626Z,99.99
2022-09-05T11:20:34.765Z,99.99
2022-09-05T11:21:25.480Z,99.99
2022-09-05T11:22:25.415Z,99.99
2022-09-05T11:23:25.397Z,98.73
2022-09-05T11:24:27.350Z,99.51
2022-09-05T11:25:39.946Z,99.12
2022-09-05T11:26:25.124Z,99.22
2022-09-05T11:27:25.976Z,99.99
2022-09-05T11:28:24.978Z,99.70
2022-09-05T11:29:24.905Z,98.78
2022-09-05T11:30:29.785Z,96.45
2022-09-05T11:31:24.845Z,95.77
2022-09-05T11:36:44.320Z,99.65
2022-09-05T11:39:35.150Z,94.80
2022-09-05T11:39:51.297Z,92.81
2022-09-05T11:39:54.295Z,91.20
2022-09-05T11:39:58.552Z,97.76
2022-09-05T11:40:03.914Z,92.71
2022-09-05T11:40:04.704Z,93.78
2022-09-05T11:40:08.376Z,91.88
2022-09-05T11:40:38.214Z,98.88
2022-09-05T11:41:25.347Z,96.94
2022-09-05T11:42:23.970Z,91.01
2022-09-05T11:43:23.897Z,96.25
2022-09-05T11:44:25.095Z,91.88
2022-09-05T11:45:23.753Z,92.18
2022-09-05T11:46:23.702Z,93.77
2022-09-05T11:47:30.039Z,91.15
2022-09-05T11:48:23.587Z,90.47
2022-09-05T11:49:23.472Z,93.92
2022-09-05T11:50:23.397Z,98.10
2022-09-05T11:51:26.062Z,88.67
2022-09-05T11:52:23.253Z,90.46
2022-09-05T11:53:23.185Z,82.97
2022-09-05T11:54:23.112Z,82.10
2022-09-05T11:55:23.043Z,80.87
2022-09-05T11:56:27.988Z,80.48
2022-09-05T11:57:33.437Z,84.42
2022-09-05T11:58:43.591Z,81.15
2022-09-05T11:59:33.422Z,84.66
2022-09-05T12:00:31.283Z,77.48
2022-09-05T12:01:42.419Z,71.80
2022-09-05T12:02:23.222Z,70.37
2022-09-05T12:03:57.222Z,69.07
2022-09-05T12:04:22.405Z,65.42
2022-09-05T12:05:48.477Z,71.79
2022-09-05T12:06:22.295Z,65.48
2022-09-05T12:07:29.850Z,62.93
2022-09-05T12:08:22.125Z,60.05
2022-09-05T12:09:24.438Z,56.07
2022-09-05T12:10:45.999Z,54.84
2022-09-05T12:11:21.929Z,51.54
2022-09-05T12:12:38.605Z,51.30
2022-09-05T12:13:24.504Z,49.37
2022-09-05T12:14:25.765Z,48.53
2022-09-05T12:15:21.638Z,44.38
2022-09-05T12:16:26.545Z,44.92
2022-09-05T12:17:35.532Z,43.85
2022-09-05T12:18:24.161Z,42.98
2022-09-05T12:19:22.972Z,44.90
2022-09-05T12:20:21.942Z,40.56
2022-09-05T12:21:21.235Z,40.38
2022-09-05T12:22:23.589Z,40.52
2022-09-05T12:23:39.916Z,39.97
2022-09-05T12:25:25.516Z,38.49
2022-09-05T12:26:30.770Z,40.62
2022-09-05T12:27:40.396Z,37.55
2022-09-05T12:27:41.541Z,35.38
2022-09-05T12:29:27.476Z,36.37
2022-09-05T12:29:34.076Z,37.90
2022-09-05T12:30:20.655Z,34.33
2022-09-05T12:32:36.518Z,34.26
2022-09-05T12:33:52.332Z,31.26
2022-09-05T12:36:02.754Z,31.35
2022-09-05T12:36:06.804Z,33.38
2022-09-05T12:36:10.757Z,32.79
2022-09-05T12:40:38.200Z,31.51
2022-09-05T12:40:51.920Z,30.36
2022-09-05T12:40:57.958Z,31.94
2022-09-05T12:41:33.093Z,31.76
2022-09-05T12:41:35.732Z,33.91
2022-09-05T12:41:44.939Z,32.42
2022-09-05T12:42:24.171Z,29.91
2022-09-05T12:44:37.096Z,28.50
2022-09-05T12:44:42.229Z,29.62
2022-09-05T12:45:19.968Z,28.11
2022-09-05T12:46:24.297Z,27.61
2022-09-05T12:47:21.094Z,27.30
2022-09-05T12:48:19.643Z,27.94
2022-09-05T12:49:19.499Z,30.05
2022-09-05T12:50:19.450Z,31.18
2022-09-05T12:51:45.158Z,28.48
2022-09-05T12:52:19.327Z,29.50